Time;durP1;ratioP1;P1;durP2;ratioP2;P2;SDS_P1;SDS_P2;PMS_P1;PMS_P2;Temp;Humidity;BMP_temperature;BMP_pressure;BME280_temperature;BME280_humidity;BME280_pressure;Samples;Min_cycle;Max_cycle;Signal;HPM_P1;HPM_P2
2023/01/27 00:03:53;;;;;;;;;;;5.90;99.90;;;;;;8338715;28;19939;-74
2023/01/27 00:07:57;;;;;;;;;;;5.90;99.90;;;;;;8359859;28;19932;-74
2023/01/27 00:16:19;;;;;;;;;;;5.90;99.90;;;;;;8360146;28;19975;-74
2023/01/27 00:24:42;;;;;;;;;;;5.90;99.90;;;;;;8361087;28;19939;-74
2023/01/27 00:28:45;;;;;;;;;;;5.90;99.90;;;;;;8341974;28;19952;-74
2023/01/27 00:37:07;;;;;;;;;;;5.80;99.90;;;;;;8362544;28;19947;-74
2023/01/27 00:41:18;;;;;;;;;;;5.70;99.90;;;;;;8357637;28;19939;-74
2023/01/27 00:49:40;;;;;;;;;;;5.70;99.90;;;;;;8363352;28;19974;-74
2023/01/27 00:53:42;;;;;;;;;;;5.70;99.90;;;;;;8344185;28;20019;-75
2023/01/27 00:57:43;;;;;;;;;;;5.60;99.90;;;;;;8361257;28;19932;-74
2023/01/27 01:01:45;;;;;;;;;;;5.60;99.90;;;;;;8361414;28;19928;-74
2023/01/27 01:05:47;;;;;;;;;;;5.50;99.90;;;;;;8342323;28;20002;-74
2023/01/27 01:09:48;;;;;;;;;;;5.50;99.90;;;;;;8343944;28;20268;-74
2023/01/27 01:13:50;;;;;;;;;;;5.50;99.90;;;;;;8360609;28;19932;-74
2023/01/27 01:17:54;;;;;;;;;;;5.40;99.90;;;;;;8362593;28;19955;-75
2023/01/27 01:21:55;;;;;;;;;;;5.40;99.90;;;;;;8359806;28;20587;-74
2023/01/27 01:25:57;;;;;;;;;;;5.40;99.90;;;;;;8359156;28;19939;-74
2023/01/27 01:30:00;;;;;;;;;;;5.40;99.90;;;;;;8358421;28;20581;-74
2023/01/27 01:34:01;;;;;;;;;;;5.30;99.90;;;;;;8358401;28;20295;-74
2023/01/27 01:38:03;;;;;;;;;;;5.40;99.90;;;;;;8344244;28;19932;-74
2023/01/27 01:42:05;;;;;;;;;;;5.40;99.90;;;;;;8363634;28;19963;-74
2023/01/27 01:46:07;;;;;;;;;;;5.40;99.90;;;;;;8363006;28;19940;-74
2023/01/27 01:50:09;;;;;;;;;;;5.40;99.90;;;;;;8368208;28;19937;-74
2023/01/27 01:54:16;;;;;;;;;;;5.30;99.90;;;;;;8364092;28;21342;-74
2023/01/27 01:58:19;;;;;;;;;;;5.30;99.90;;;;;;8376137;28;19968;-74
2023/01/27 02:02:22;;;;;;;;;;;5.30;99.90;;;;;;8369366;28;19932;-74
2023/01/27 02:06:26;;;;;;;;;;;5.30;99.90;;;;;;8347247;28;20382;-74
2023/01/27 02:10:28;;;;;;;;;;;5.40;99.90;;;;;;8364495;28;19924;-74
2023/01/27 02:14:29;;;;;;;;;;;5.30;99.90;;;;;;8370236;28;20383;-74
2023/01/27 02:18:31;;;;;;;;;;;5.40;99.90;;;;;;8347933;28;20391;-74
2023/01/27 02:22:39;;;;;;;;;;;5.30;99.90;;;;;;8373162;28;19939;-76
2023/01/27 02:26:44;;;;;;;;;;;5.40;99.90;;;;;;8363914;28;20310;-74
2023/01/27 02:30:45;;;;;;;;;;;5.30;99.90;;;;;;8371967;28;20532;-74
2023/01/27 02:34:47;;;;;;;;;;;5.30;99.90;;;;;;8360558;28;19932;-74
2023/01/27 02:38:50;;;;;;;;;;;5.30;99.90;;;;;;8376862;28;20016;-74
2023/01/27 02:42:54;;;;;;;;;;;5.30;99.90;;;;;;8372604;28;19932;-75
2023/01/27 02:46:56;;;;;;;;;;;5.30;99.90;;;;;;8371146;28;20417;-74
2023/01/27 02:50:57;;;;;;;;;;;5.20;99.90;;;;;;8364864;28;19932;-74
2023/01/27 02:54:59;;;;;;;;;;;5.20;99.90;;;;;;8348509;28;19932;-74
2023/01/27 02:59:00;;;;;;;;;;;5.20;99.90;;;;;;8385707;28;20392;-74
2023/01/27 03:03:02;;;;;;;;;;;5.20;99.90;;;;;;8367251;28;19938;-74
2023/01/27 03:07:04;;;;;;;;;;;5.20;99.90;;;;;;8366449;28;19940;-74
2023/01/27 03:11:05;;;;;;;;;;;5.20;99.90;;;;;;8370976;28;19939;-75
2023/01/27 03:19:28;;;;;;;;;;;5.10;99.90;;;;;;8366276;28;20030;-74
2023/01/27 03:23:33;;;;;;;;;;;5.10;99.90;;;;;;8346682;28;19975;-75
2023/01/27 03:27:35;;;;;;;;;;;5.00;99.90;;;;;;8369577;28;20715;-74
2023/01/27 03:31:36;;;;;;;;;;;5.00;99.90;;;;;;8361357;28;20375;-74
2023/01/27 03:35:47;;;;;;;;;;;4.90;99.90;;;;;;8362639;28;19931;-74
2023/01/27 03:48:30;;;;;;;;;;;4.80;99.90;;;;;;8357722;28;19983;-74
2023/01/27 03:52:32;;;;;;;;;;;4.80;99.90;;;;;;8344464;28;19929;-74
2023/01/27 03:56:34;;;;;;;;;;;4.80;99.90;;;;;;8364304;28;19939;-74
2023/01/27 04:00:35;;;;;;;;;;;4.80;99.90;;;;;;8365130;28;19932;-74
2023/01/27 04:08:58;;;;;;;;;;;4.80;99.90;;;;;;8364827;28;19935;-74
2023/01/27 04:12:59;;;;;;;;;;;4.80;99.90;;;;;;8356930;28;19954;-74
2023/01/27 04:17:05;;;;;;;;;;;4.80;99.90;;;;;;8363654;28;19932;-74
2023/01/27 04:21:07;;;;;;;;;;;4.80;99.90;;;;;;8349463;28;22086;-74
2023/01/27 04:25:09;;;;;;;;;;;4.80;99.90;;;;;;8357448;28;20378;-74
2023/01/27 04:29:13;;;;;;;;;;;4.90;99.90;;;;;;8360131;28;19932;-74
2023/01/27 04:33:15;;;;;;;;;;;4.90;99.90;;;;;;8335294;28;19933;-74
2023/01/27 04:37:17;;;;;;;;;;;4.90;99.90;;;;;;8344364;28;19970;-74
2023/01/27 04:41:18;;;;;;;;;;;4.90;99.90;;;;;;8358645;28;21154;-74
2023/01/27 04:45:20;;;;;;;;;;;5.00;99.90;;;;;;8351983;28;20087;-74
2023/01/27 04:49:22;;;;;;;;;;;5.00;99.90;;;;;;8347972;28;19939;-74
2023/01/27 04:53:23;;;;;;;;;;;5.00;99.90;;;;;;8359560;28;19946;-74
2023/01/27 04:57:26;;;;;;;;;;;5.00;99.90;;;;;;8362856;28;19975;-74
2023/01/27 05:01:28;;;;;;;;;;;5.00;99.90;;;;;;8356290;28;19938;-74
2023/01/27 05:05:30;;;;;;;;;;;5.00;99.90;;;;;;8335317;28;19932;-74
2023/01/27 05:09:32;;;;;;;;;;;5.00;99.90;;;;;;8336695;28;19928;-74
2023/01/27 05:13:34;;;;;;;;;;;5.00;99.90;;;;;;8360940;28;20402;-74
2023/01/27 05:17:35;;;;;;;;;;;5.00;99.90;;;;;;8372077;28;19929;-74
2023/01/27 05:21:37;;;;;;;;;;;5.10;99.90;;;;;;8395210;28;19928;-74
2023/01/27 05:25:42;;;;;;;;;;;5.00;99.90;;;;;;8391750;28;20195;-74
2023/01/27 05:29:43;;;;;;;;;;;5.00;99.90;;;;;;8389713;28;19933;-74
2023/01/27 05:33:46;;;;;;;;;;;5.00;99.90;;;;;;8373036;28;19935;-74
2023/01/27 05:37:47;;;;;;;;;;;5.00;99.90;;;;;;8373906;28;20299;-74
2023/01/27 05:41:49;;;;;;;;;;;5.00;99.90;;;;;;8394037;28;19963;-74
2023/01/27 05:45:51;;;;;;;;;;;5.10;99.90;;;;;;8392010;28;19931;-75
2023/01/27 05:49:52;;;;;;;;;;;5.00;99.90;;;;;;8391936;28;20375;-75
2023/01/27 05:53:54;;;;;;;;;;;5.00;99.90;;;;;;8388613;28;20374;-74
2023/01/27 05:57:56;;;;;;;;;;;5.10;99.90;;;;;;8389418;28;19936;-74
2023/01/27 06:01:58;;;;;;;;;;;5.10;99.90;;;;;;8366483;28;20023;-74
2023/01/27 06:05:59;;;;;;;;;;;5.00;99.90;;;;;;8388091;28;19971;-75
2023/01/27 06:10:01;;;;;;;;;;;5.10;99.90;;;;;;8377773;28;19929;-74
2023/01/27 06:14:03;;;;;;;;;;;5.10;99.90;;;;;;8366946;28;20286;-74
2023/01/27 06:18:04;;;;;;;;;;;5.10;99.90;;;;;;8372320;28;19924;-74
2023/01/27 06:22:06;;;;;;;;;;;5.10;99.90;;;;;;8384984;28;19978;-75
2023/01/27 06:26:12;;;;;;;;;;;5.10;99.90;;;;;;8392213;28;19971;-74
2023/01/27 06:30:14;;;;;;;;;;;5.10;99.90;;;;;;8401428;28;19948;-74
2023/01/27 06:34:15;;;;;;;;;;;5.10;99.90;;;;;;8390777;28;19931;-74
2023/01/27 06:38:17;;;;;;;;;;;5.10;99.90;;;;;;8404916;28;19932;-74
2023/01/27 06:42:19;;;;;;;;;;;5.10;99.90;;;;;;8380941;28;20288;-74
2023/01/27 06:46:20;;;;;;;;;;;5.10;99.90;;;;;;8397544;28;19947;-74
2023/01/27 06:50:23;;;;;;;;;;;5.10;99.90;;;;;;8379923;28;19947;-74
2023/01/27 06:54:24;;;;;;;;;;;5.10;99.90;;;;;;8393770;28;19930;-74
2023/01/27 06:58:26;;;;;;;;;;;5.10;99.90;;;;;;8383335;28;19933;-74
2023/01/27 07:02:28;;;;;;;;;;;5.00;99.90;;;;;;8377856;28;20015;-74
2023/01/27 07:06:30;;;;;;;;;;;5.00;99.90;;;;;;8400207;28;20382;-74
2023/01/27 07:10:31;;;;;;;;;;;5.00;99.90;;;;;;8392753;28;20410;-74
2023/01/27 07:14:33;;;;;;;;;;;5.00;99.90;;;;;;8378515;28;19931;-74
2023/01/27 07:18:35;;;;;;;;;;;5.00;99.90;;;;;;8413105;28;19924;-74
2023/01/27 07:22:36;;;;;;;;;;;5.00;99.90;;;;;;8379617;28;19970;-74
2023/01/27 07:26:38;;;;;;;;;;;5.00;99.90;;;;;;8392299;28;20352;-74
2023/01/27 07:30:40;;;;;;;;;;;5.00;99.90;;;;;;8388710;28;19930;-74
2023/01/27 07:34:41;;;;;;;;;;;5.00;99.90;;;;;;8394582;28;19924;-74
2023/01/27 07:38:43;;;;;;;;;;;5.00;99.90;;;;;;8401999;28;19935;-74
2023/01/27 07:42:44;;;;;;;;;;;5.00;99.90;;;;;;8396747;28;19928;-74
2023/01/27 07:46:46;;;;;;;;;;;4.90;99.90;;;;;;8383861;28;19934;-74
2023/01/27 07:50:48;;;;;;;;;;;4.90;99.90;;;;;;8378442;28;20299;-74
2023/01/27 07:54:49;;;;;;;;;;;4.90;99.90;;;;;;8391563;28;19925;-74
2023/01/27 07:58:52;;;;;;;;;;;4.90;99.90;;;;;;8378235;28;19931;-74
2023/01/27 08:02:54;;;;;;;;;;;4.90;99.90;;;;;;8386781;28;20378;-74
2023/01/27 08:06:56;;;;;;;;;;;4.90;99.90;;;;;;8395748;28;19935;-74
2023/01/27 08:10:58;;;;;;;;;;;5.00;99.90;;;;;;8380364;28;19930;-74
2023/01/27 08:15:00;;;;;;;;;;;5.10;99.90;;;;;;8392057;28;19947;-74
2023/01/27 08:19:01;;;;;;;;;;;5.10;99.90;;;;;;8371680;28;19925;-74
2023/01/27 08:23:03;;;;;;;;;;;5.00;99.90;;;;;;8393215;28;19993;-74
2023/01/27 08:27:05;;;;;;;;;;;5.10;99.90;;;;;;8381963;28;19925;-74
2023/01/27 08:31:08;;;;;;;;;;;5.10;99.90;;;;;;8392867;28;19924;-74
2023/01/27 08:35:10;;;;;;;;;;;5.10;99.90;;;;;;8390025;28;19943;-74
2023/01/27 08:39:12;;;;;;;;;;;5.10;99.90;;;;;;8380477;28;19932;-74
2023/01/27 08:43:17;;;;;;;;;;;5.10;99.90;;;;;;8367312;28;19924;-74
2023/01/27 08:47:18;;;;;;;;;;;5.10;99.90;;;;;;8366404;28;20222;-74
2023/01/27 08:51:20;;;;;;;;;;;5.10;99.90;;;;;;8395180;28;19933;-74
2023/01/27 08:55:22;;;;;;;;;;;5.20;99.90;;;;;;8388408;28;19925;-74
2023/01/27 08:59:23;;;;;;;;;;;5.20;99.90;;;;;;8375945;28;19932;-74
2023/01/27 09:03:25;;;;;;;;;;;5.20;99.90;;;;;;8391181;28;20015;-74
2023/01/27 09:07:27;;;;;;;;;;;5.20;99.90;;;;;;8390211;28;19935;-74
2023/01/27 09:11:28;;;;;;;;;;;5.20;99.90;;;;;;8390976;28;19931;-74
2023/01/27 09:15:30;;;;;;;;;;;5.30;99.90;;;;;;8387041;28;19964;-74
2023/01/27 09:19:32;;;;;;;;;;;5.50;99.90;;;;;;8390329;28;19968;-74
2023/01/27 09:23:33;;;;;;;;;;;5.80;99.90;;;;;;8389316;28;19948;-74
2023/01/27 09:27:35;;;;;;;;;;;6.10;99.90;;;;;;8397334;28;20329;-74
2023/01/27 09:31:40;;;;;;;;;;;6.60;99.90;;;;;;8375351;28;19928;-75
2023/01/27 09:35:45;;;;;;;;;;;6.90;99.90;;;;;;8389720;28;19932;-74
2023/01/27 09:39:49;;;;;;;;;;;6.80;99.90;;;;;;8393349;28;19928;-75
2023/01/27 09:43:54;;;;;;;;;;;6.60;99.90;;;;;;8371710;28;19929;-74
2023/01/27 09:48:01;;;;;;;;;;;6.40;99.90;;;;;;8362481;28;19928;-74
2023/01/27 09:52:22;;;;;;;;;;;6.20;99.90;;;;;;8377442;28;19935;-74
2023/01/27 09:56:33;;;;;;;;;;;6.20;99.90;;;;;;8401501;28;19925;-74
2023/01/27 10:00:38;;;;;;;;;;;6.20;99.90;;;;;;8385402;28;19975;-74
2023/01/27 10:04:42;;;;;;;;;;;6.10;99.90;;;;;;8389759;28;19932;-74
2023/01/27 10:08:53;;;;;;;;;;;6.10;99.90;;;;;;8404455;28;19924;-74
2023/01/27 10:13:16;;;;;;;;;;;6.00;99.90;;;;;;8371889;28;19928;-74
2023/01/27 10:17:24;;;;;;;;;;;6.00;99.90;;;;;;8395851;28;19940;-74
2023/01/27 10:21:47;;;;;;;;;;;5.90;99.90;;;;;;8372226;28;19934;-74
2023/01/27 10:26:02;;;;;;;;;;;5.90;99.90;;;;;;8391491;28;19929;-74
2023/01/27 10:30:12;;;;;;;;;;;5.90;99.90;;;;;;8396419;28;19974;-75
2023/01/27 10:34:25;;;;;;;;;;;5.80;99.90;;;;;;8402575;28;19931;-75
2023/01/27 10:38:45;;;;;;;;;;;5.80;99.90;;;;;;8384795;28;19929;-75
2023/01/27 10:43:05;;;;;;;;;;;5.80;99.90;;;;;;8393790;28;19929;-75
2023/01/27 10:47:25;;;;;;;;;;;5.70;99.90;;;;;;8383773;28;20403;-74
2023/01/27 10:51:27;;;;;;;;;;;5.80;99.90;;;;;;8397118;28;19950;-74
2023/01/27 10:55:36;;;;;;;;;;;5.80;99.90;;;;;;8394748;28;19932;-74
2023/01/27 10:59:40;;;;;;;;;;;5.80;99.90;;;;;;8388907;28;20011;-74
2023/01/27 11:03:48;;;;;;;;;;;5.70;99.90;;;;;;8377443;28;19924;-74
2023/01/27 11:07:55;;;;;;;;;;;5.80;99.90;;;;;;8376782;28;19925;-74
2023/01/27 11:11:59;;;;;;;;;;;5.80;99.90;;;;;;8390750;28;19928;-75
2023/01/27 11:16:03;;;;;;;;;;;5.80;99.90;;;;;;8399064;28;20293;-75
2023/01/27 11:20:24;;;;;;;;;;;5.80;99.90;;;;;;8383050;28;19938;-74
2023/01/27 11:24:37;;;;;;;;;;;5.80;99.90;;;;;;8407749;28;20403;-74
2023/01/27 11:28:45;;;;;;;;;;;5.80;99.90;;;;;;8403254;28;19928;-74
2023/01/27 11:32:59;;;;;;;;;;;5.80;99.90;;;;;;8376961;28;20034;-74
2023/01/27 11:37:08;;;;;;;;;;;5.70;99.90;;;;;;8398276;28;20022;-75
2023/01/27 11:41:10;;;;;;;;;;;5.70;99.90;;;;;;8400535;28;19932;-75
2023/01/27 11:45:13;;;;;;;;;;;5.70;99.90;;;;;;8387085;28;19932;-74
2023/01/27 11:49:20;;;;;;;;;;;5.70;99.90;;;;;;8405229;28;19929;-74
2023/01/27 11:53:27;;;;;;;;;;;5.80;99.90;;;;;;8394657;28;19931;-74
2023/01/27 11:57:29;;;;;;;;;;;5.80;99.90;;;;;;8396437;28;19925;-74
2023/01/27 12:01:48;;;;;;;;;;;5.80;99.90;;;;;;8392538;28;19925;-74
2023/01/27 12:05:54;;;;;;;;;;;5.90;99.90;;;;;;8392759;28;19975;-74
2023/01/27 12:09:56;;;;;;;;;;;5.90;99.90;;;;;;8395401;28;20372;-74
2023/01/27 12:14:02;;;;;;;;;;;5.80;99.90;;;;;;8375291;28;19932;-74
2023/01/27 12:18:10;;;;;;;;;;;5.80;99.90;;;;;;8392145;28;19925;-74
2023/01/27 12:22:15;;;;;;;;;;;5.80;99.90;;;;;;8375842;28;19963;-74
2023/01/27 12:26:28;;;;;;;;;;;5.80;99.90;;;;;;8373890;28;19932;-74
2023/01/27 12:30:32;;;;;;;;;;;5.80;99.90;;;;;;8397371;28;19924;-75
2023/01/27 12:34:36;;;;;;;;;;;5.80;99.90;;;;;;8402123;28;20284;-73
2023/01/27 12:38:43;;;;;;;;;;;5.80;99.90;;;;;;8391732;28;19928;-74
2023/01/27 12:43:03;;;;;;;;;;;5.80;99.90;;;;;;8393949;28;19977;-74
2023/01/27 12:47:24;;;;;;;;;;;5.90;99.90;;;;;;8382009;28;21975;-74
2023/01/27 12:51:34;;;;;;;;;;;6.00;99.90;;;;;;8391337;28;19946;-74
2023/01/27 12:55:48;;;;;;;;;;;6.10;99.90;;;;;;8388917;28;19929;-75
2023/01/27 12:59:51;;;;;;;;;;;6.20;99.90;;;;;;8391311;28;20394;-74
2023/01/27 13:03:55;;;;;;;;;;;6.20;99.90;;;;;;8391710;28;19924;-74
2023/01/27 13:07:58;;;;;;;;;;;6.30;99.90;;;;;;8394903;28;19932;-74
2023/01/27 13:12:01;;;;;;;;;;;6.30;99.90;;;;;;8371764;28;20416;-74
2023/01/27 13:16:16;;;;;;;;;;;6.30;99.90;;;;;;8371726;28;19972;-74
2023/01/27 13:20:22;;;;;;;;;;;6.40;99.90;;;;;;8390470;28;19935;-74
2023/01/27 13:24:35;;;;;;;;;;;6.30;99.90;;;;;;8392055;28;19931;-74
2023/01/27 13:28:46;;;;;;;;;;;6.30;99.90;;;;;;8391527;28;19935;-75
2023/01/27 13:32:56;;;;;;;;;;;6.20;99.90;;;;;;8389005;28;19994;-74
2023/01/27 13:37:17;;;;;;;;;;;6.20;99.90;;;;;;8387513;28;19929;-74
2023/01/27 13:41:24;;;;;;;;;;;6.20;99.90;;;;;;8393395;28;19932;-74
2023/01/27 13:45:34;;;;;;;;;;;6.20;99.90;;;;;;8384996;28;19931;-74
2023/01/27 13:49:44;;;;;;;;;;;6.10;99.90;;;;;;8368822;28;19968;-74
2023/01/27 13:53:49;;;;;;;;;;;6.10;99.90;;;;;;8386851;28;19967;-75
2023/01/27 13:58:14;;;;;;;;;;;6.10;99.90;;;;;;8373722;28;19947;-75
2023/01/27 14:02:26;;;;;;;;;;;6.00;99.90;;;;;;8358108;28;20431;-74
2023/01/27 14:06:31;;;;;;;;;;;6.00;99.90;;;;;;8370617;28;19944;-74
2023/01/27 14:10:35;;;;;;;;;;;6.00;99.90;;;;;;8394610;28;19931;-74
2023/01/27 14:14:56;;;;;;;;;;;6.00;99.90;;;;;;8389367;28;19964;-74
2023/01/27 14:19:02;;;;;;;;;;;6.00;99.90;;;;;;8395570;28;20299;-74
2023/01/27 14:23:10;;;;;;;;;;;6.00;99.90;;;;;;8379925;28;20399;-74
2023/01/27 14:27:21;;;;;;;;;;;6.00;99.90;;;;;;8384224;28;19968;-74
2023/01/27 14:31:31;;;;;;;;;;;5.90;99.90;;;;;;8363452;28;20343;-74
2023/01/27 14:35:38;;;;;;;;;;;5.90;99.90;;;;;;8364543;28;19925;-74
2023/01/27 14:39:46;;;;;;;;;;;5.90;99.90;;;;;;8380758;28;19958;-74
2023/01/27 14:43:56;;;;;;;;;;;5.90;99.90;;;;;;8355552;28;20028;-74
2023/01/27 14:48:17;;;;;;;;;;;5.90;99.90;;;;;;8369149;28;19932;-74
2023/01/27 14:52:18;;;;;;;;;;;5.80;99.90;;;;;;8384971;28;19933;-74
2023/01/27 14:56:38;;;;;;;;;;;5.80;99.90;;;;;;8370480;28;19925;-75
2023/01/27 15:00:58;;;;;;;;;;;5.80;99.90;;;;;;8383647;28;19924;-74
2023/01/27 15:05:18;;;;;;;;;;;5.70;99.90;;;;;;8349279;28;19924;-74
2023/01/27 15:09:26;;;;;;;;;;;5.70;99.90;;;;;;8375277;28;19928;-74
2023/01/27 15:13:33;;;;;;;;;;;5.60;99.90;;;;;;8347281;28;19964;-74
2023/01/27 15:17:41;;;;;;;;;;;5.60;99.90;;;;;;8345913;28;20483;-74
2023/01/27 15:22:02;;;;;;;;;;;5.60;99.90;;;;;;8383276;28;19944;-74
2023/01/27 15:26:05;;;;;;;;;;;5.50;99.90;;;;;;8369339;28;20019;-74
2023/01/27 15:30:19;;;;;;;;;;;5.50;99.90;;;;;;8376861;28;19939;-74
2023/01/27 15:34:22;;;;;;;;;;;5.50;99.90;;;;;;8361391;28;20375;-74
2023/01/27 15:38:33;;;;;;;;;;;5.50;99.90;;;;;;8375492;28;19932;-75
2023/01/27 15:42:54;;;;;;;;;;;5.50;99.90;;;;;;8364247;28;20071;-74
2023/01/27 15:47:08;;;;;;;;;;;5.40;99.90;;;;;;8361705;28;20161;-74
2023/01/27 15:51:15;;;;;;;;;;;5.30;99.90;;;;;;8369209;28;19990;-75
2023/01/27 15:55:33;;;;;;;;;;;5.30;99.90;;;;;;8365690;28;20183;-74
2023/01/27 15:59:46;;;;;;;;;;;5.30;99.90;;;;;;8366658;28;19924;-74
2023/01/27 16:04:08;;;;;;;;;;;5.30;99.90;;;;;;8348557;28;19933;-74
2023/01/27 16:08:11;;;;;;;;;;;5.30;99.90;;;;;;8359300;28;19931;-74
2023/01/27 16:12:22;;;;;;;;;;;5.30;99.90;;;;;;8361438;28;19978;-74
2023/01/27 16:16:31;;;;;;;;;;;5.30;99.90;;;;;;8351533;28;19932;-74
2023/01/27 16:20:37;;;;;;;;;;;5.20;99.90;;;;;;8373874;28;19951;-73
2023/01/27 16:24:39;;;;;;;;;;;5.20;99.90;;;;;;8367145;28;19932;-74
2023/01/27 16:28:43;;;;;;;;;;;5.30;99.90;;;;;;8348305;28;19925;-74
2023/01/27 16:32:52;;;;;;;;;;;5.30;99.90;;;;;;8367052;28;20055;-74
2023/01/27 16:36:59;;;;;;;;;;;5.20;99.90;;;;;;8359130;28;19932;-74
2023/01/27 16:41:04;;;;;;;;;;;5.20;99.90;;;;;;8350681;28;20376;-74
2023/01/27 16:45:14;;;;;;;;;;;5.30;99.90;;;;;;8360789;28;19936;-74
2023/01/27 16:49:22;;;;;;;;;;;5.20;99.90;;;;;;8360664;28;19963;-74
2023/01/27 16:53:24;;;;;;;;;;;5.20;99.90;;;;;;8362953;28;24808;-74
2023/01/27 16:57:26;;;;;;;;;;;5.30;99.90;;;;;;8362718;28;20287;-74
2023/01/27 17:01:42;;;;;;;;;;;5.20;99.90;;;;;;8343958;28;20467;-74
2023/01/27 17:05:48;;;;;;;;;;;5.20;99.90;;;;;;8380178;28;19925;-74
2023/01/27 17:09:54;;;;;;;;;;;5.20;99.90;;;;;;8365042;28;19932;-74
2023/01/27 17:14:00;;;;;;;;;;;5.20;99.90;;;;;;8361599;28;20359;-75
2023/01/27 17:18:07;;;;;;;;;;;5.20;99.90;;;;;;8360400;28;20392;-75
2023/01/27 17:22:18;;;;;;;;;;;5.10;99.90;;;;;;8361598;28;19928;-74
2023/01/27 17:26:19;;;;;;;;;;;5.10;99.90;;;;;;8368662;28;19928;-74
2023/01/27 17:30:25;;;;;;;;;;;5.10;99.90;;;;;;8363666;28;19951;-74
2023/01/27 17:34:27;;;;;;;;;;;5.10;99.90;;;;;;8356141;28;20589;-74
2023/01/27 17:38:44;;;;;;;;;;;5.10;99.90;;;;;;8374883;28;20280;-74
2023/01/27 17:42:46;;;;;;;;;;;5.10;99.90;;;;;;8361272;28;20619;-74
2023/01/27 17:46:47;;;;;;;;;;;5.10;99.90;;;;;;8370884;28;19983;-74
2023/01/27 17:50:49;;;;;;;;;;;5.10;99.90;;;;;;8371311;28;19932;-74
2023/01/27 17:54:51;;;;;;;;;;;5.00;99.90;;;;;;8364416;28;20007;-74
2023/01/27 17:58:54;;;;;;;;;;;5.00;99.90;;;;;;8371335;28;19925;-74
2023/01/27 18:02:58;;;;;;;;;;;5.00;99.90;;;;;;8364325;28;20007;-74
2023/01/27 18:07:00;;;;;;;;;;;5.00;99.90;;;;;;8354274;28;19931;-74
2023/01/27 18:11:09;;;;;;;;;;;5.00;99.90;;;;;;8367437;28;19931;-75
2023/01/27 18:15:30;;;;;;;;;;;5.00;99.90;;;;;;8361312;28;20432;-74
2023/01/27 18:19:32;;;;;;;;;;;5.00;99.90;;;;;;8361685;28;19987;-74
2023/01/27 18:23:43;;;;;;;;;;;5.00;99.90;;;;;;8365953;28;20035;-74
2023/01/27 18:27:48;;;;;;;;;;;5.00;99.90;;;;;;8363399;28;19938;-74
2023/01/27 18:32:08;;;;;;;;;;;5.00;99.90;;;;;;8391039;28;20527;-74
2023/01/27 18:36:22;;;;;;;;;;;5.00;99.90;;;;;;8389081;28;19937;-74
2023/01/27 18:40:24;;;;;;;;;;;5.00;99.90;;;;;;8369802;28;19964;-74
2023/01/27 18:44:35;;;;;;;;;;;4.90;99.90;;;;;;8367416;28;20129;-74
2023/01/27 18:48:37;;;;;;;;;;;4.90;99.90;;;;;;8348942;28;20357;-74
2023/01/27 18:52:41;;;;;;;;;;;4.90;99.90;;;;;;8376814;28;19935;-74
2023/01/27 18:56:42;;;;;;;;;;;4.90;99.90;;;;;;8373137;28;20391;-74
2023/01/27 19:00:46;;;;;;;;;;;4.80;99.90;;;;;;8347700;28;19936;-74
2023/01/27 19:04:48;;;;;;;;;;;4.90;99.90;;;;;;8365113;28;20018;-74
2023/01/27 19:08:50;;;;;;;;;;;4.80;99.90;;;;;;8370561;28;20387;-74
2023/01/27 19:12:57;;;;;;;;;;;4.80;99.90;;;;;;8370696;28;20394;-74
2023/01/27 19:16:59;;;;;;;;;;;4.80;99.90;;;;;;8382004;28;19933;-74
2023/01/27 19:21:01;;;;;;;;;;;4.80;99.90;;;;;;8367531;28;19975;-74
2023/01/27 19:25:03;;;;;;;;;;;4.80;99.90;;;;;;8322172;28;20023;-74
2023/01/27 19:29:04;;;;;;;;;;;4.80;99.90;;;;;;8360031;28;19925;-73
2023/01/27 19:33:22;;;;;;;;;;;4.80;99.90;;;;;;8353491;28;19998;-74
2023/01/27 19:37:24;;;;;;;;;;;4.80;99.90;;;;;;8323682;28;20387;-74
2023/01/27 19:41:27;;;;;;;;;;;4.80;99.90;;;;;;8320262;28;19967;-74
2023/01/27 19:45:28;;;;;;;;;;;4.80;99.90;;;;;;8325731;28;19939;-74
2023/01/27 19:49:30;;;;;;;;;;;4.80;99.90;;;;;;8356682;28;20372;-74
2023/01/27 19:53:31;;;;;;;;;;;4.80;99.90;;;;;;8323647;28;19935;-74
2023/01/27 19:57:34;;;;;;;;;;;4.80;99.90;;;;;;8330720;28;19955;-74
2023/01/27 20:01:36;;;;;;;;;;;4.80;99.90;;;;;;8328398;28;19932;-74
2023/01/27 20:05:37;;;;;;;;;;;4.80;99.90;;;;;;8328090;28;19928;-74
2023/01/27 20:09:39;;;;;;;;;;;4.80;99.90;;;;;;8323709;28;20372;-74
2023/01/27 20:13:40;;;;;;;;;;;4.80;99.90;;;;;;8325635;28;20491;-74
2023/01/27 20:17:42;;;;;;;;;;;4.70;99.90;;;;;;8351811;28;19933;-74
2023/01/27 20:21:44;;;;;;;;;;;4.70;99.90;;;;;;8327473;28;19932;-74
2023/01/27 20:25:46;;;;;;;;;;;4.70;99.90;;;;;;8360509;28;19928;-74
2023/01/27 20:29:48;;;;;;;;;;;4.70;99.90;;;;;;8331606;28;19980;-74
2023/01/27 20:33:50;;;;;;;;;;;4.70;99.90;;;;;;8328260;28;20055;-74
2023/01/27 20:37:52;;;;;;;;;;;4.70;99.90;;;;;;8324847;28;19932;-74
2023/01/27 20:41:53;;;;;;;;;;;4.70;99.90;;;;;;8323052;28;19998;-74
2023/01/27 20:45:55;;;;;;;;;;;4.70;99.90;;;;;;8323026;28;19929;-74
2023/01/27 20:49:57;;;;;;;;;;;4.70;99.90;;;;;;8320625;28;19956;-74
2023/01/27 21:04:06;;;;;;;;;;;4.70;99.90;;;;;;8318681;28;19928;-74
2023/01/27 21:08:07;;;;;;;;;;;4.70;99.90;;;;;;8321486;28;19945;-74
2023/01/27 21:12:09;;;;;;;;;;;4.60;99.90;;;;;;8322047;28;19980;-74
2023/01/27 21:16:11;;;;;;;;;;;4.60;99.90;;;;;;8321542;28;20384;-75
2023/01/27 21:20:12;;;;;;;;;;;4.60;99.90;;;;;;8321918;28;19976;-74
2023/01/27 21:24:14;;;;;;;;;;;4.60;99.90;;;;;;8331185;28;19929;-74
2023/01/27 21:28:16;;;;;;;;;;;4.60;99.90;;;;;;8353977;28;19980;-74
2023/01/27 21:32:18;;;;;;;;;;;4.50;99.90;;;;;;8352360;28;19967;-74
2023/01/27 21:36:20;;;;;;;;;;;4.50;99.90;;;;;;8368367;28;19940;-74
2023/01/27 21:40:21;;;;;;;;;;;4.50;99.90;;;;;;8354572;28;19951;-74
2023/01/27 21:48:45;;;;;;;;;;;4.50;99.90;;;;;;8353950;28;20609;-74
2023/01/27 21:52:47;;;;;;;;;;;4.50;99.90;;;;;;8355730;28;19929;-74
2023/01/27 21:56:48;;;;;;;;;;;4.50;99.90;;;;;;8337895;28;20662;-74
2023/01/27 22:00:50;;;;;;;;;;;4.50;99.90;;;;;;8334727;28;19933;-74
2023/01/27 22:04:52;;;;;;;;;;;4.50;99.90;;;;;;8369851;28;19936;-74
2023/01/27 22:08:54;;;;;;;;;;;4.40;99.90;;;;;;8364680;28;19933;-74
2023/01/27 22:13:00;;;;;;;;;;;4.40;99.90;;;;;;8341865;28;19972;-74
2023/01/27 22:17:01;;;;;;;;;;;4.40;99.90;;;;;;8349777;28;19983;-74
2023/01/27 22:21:03;;;;;;;;;;;4.40;99.90;;;;;;8382337;28;19932;-74
2023/01/27 22:25:05;;;;;;;;;;;4.40;99.90;;;;;;8367985;28;19932;-74
2023/01/27 22:29:07;;;;;;;;;;;4.40;99.90;;;;;;8350932;28;20410;-74
2023/01/27 22:33:08;;;;;;;;;;;4.40;99.90;;;;;;8365602;28;19928;-74
2023/01/27 22:37:10;;;;;;;;;;;4.40;99.90;;;;;;8367951;28;20019;-74
2023/01/27 22:41:11;;;;;;;;;;;4.40;99.90;;;;;;8366775;28;19970;-74
2023/01/27 22:45:13;;;;;;;;;;;4.40;99.90;;;;;;8368302;28;19928;-74
2023/01/27 22:49:15;;;;;;;;;;;4.30;99.90;;;;;;8366633;28;19932;-74
2023/01/27 22:53:17;;;;;;;;;;;4.40;99.90;;;;;;8353194;28;20289;-74
2023/01/27 22:57:19;;;;;;;;;;;4.40;99.90;;;;;;8351071;28;20378;-74
2023/01/27 23:01:21;;;;;;;;;;;4.30;99.90;;;;;;8367718;28;19950;-74
2023/01/27 23:05:22;;;;;;;;;;;4.30;99.90;;;;;;8367898;28;19928;-74
2023/01/27 23:09:24;;;;;;;;;;;4.30;99.90;;;;;;8349888;28;19940;-74
2023/01/27 23:13:26;;;;;;;;;;;4.30;99.90;;;;;;8364437;28;20583;-74
2023/01/27 23:17:28;;;;;;;;;;;4.30;99.90;;;;;;8357190;28;19968;-74
2023/01/27 23:21:30;;;;;;;;;;;4.30;99.90;;;;;;8368242;28;20036;-74
2023/01/27 23:25:32;;;;;;;;;;;4.30;99.90;;;;;;8357280;28;20019;-74
2023/01/27 23:29:34;;;;;;;;;;;4.30;99.90;;;;;;8367847;28;19975;-74
2023/01/27 23:33:36;;;;;;;;;;;4.30;99.90;;;;;;8379383;28;19976;-74
2023/01/27 23:37:38;;;;;;;;;;;4.20;99.90;;;;;;8367051;28;19976;-74
2023/01/27 23:41:40;;;;;;;;;;;4.20;99.90;;;;;;8382582;28;20018;-74
2023/01/27 23:45:41;;;;;;;;;;;4.20;99.90;;;;;;8363220;28;20406;-74
2023/01/27 23:49:43;;;;;;;;;;;4.20;99.90;;;;;;8350531;28;19964;-73
2023/01/27 23:53:45;;;;;;;;;;;4.20;99.90;;;;;;8363977;28;19933;-73
2023/01/27 23:57:46;;;;;;;;;;;4.20;99.90;;;;;;8365812;28;19990;-74
